Terminal Aerodrome Forecast
Issued by NWS Tampa Bay Area, FL

Home | Current Version | Previous Version | Text Only | Print | Product List | Glossary On
Versions: 1 2 3 4 5 6 7 8 9 10 11 12 13 14 15
065
FTUS42 KTBW 162336 CCA
TAFFMY
TAF COR
KFMY 162336Z 1700/1724 09006KT P6SM FEW060
     FM170800 08003KT 4SM BR FEW005 SCT030 SCT250
      TEMPO 1708/1712 2SM BR
     FM171300 13008KT P6SM SCT035 BKN250
     FM172100 22007KT P6SM BKN050=

USA.gov is the U.S. government's official web portal to all federal, state and local government web resources and services.